WetterOnline ( http://www.wetteronline.de )

Wetter aktuell Aach

Aktuelles Wetter: Trier/Petrisberg (273m)

6-stündlich | Neueste Meldungen
Ortszeit Temperatur Wetter
Mo, 25.03. 7:00 1.1° C bewölkt
Mo, 25.03. 1:00 4.4° C wolkenlos
So, 24.03. 19:00 9.6° C wolkenlos
So, 24.03. 13:00 12.6° C wolkig
So, 24.03. 7:00 3.5° C bedeckt
So, 24.03. 1:00 5.1° C wolkenlos
Sa, 23.03. 19:00 9.3° C wolkig
Sa, 23.03. 13:00 14.4° C leicht bewölkt
Ortszeit Temperatur Wetter
Mo, 25.03. 8:00 2.5° C bedeckt
Mo, 25.03. 7:50 2.5° C bedeckt
Mo, 25.03. 7:40 2.1° C bedeckt
Mo, 25.03. 7:30 2.0° C bedeckt
Mo, 25.03. 7:20 2.0° C bedeckt
Mo, 25.03. 7:10 2.0° C bewölkt
Mo, 25.03. 7:00 1.1° C bewölkt
Mo, 25.03. 6:30 1.0° C wolkig
Mo, 25.03. 6:00 0.8° C leicht bewölkt
Mo, 25.03. 5:30 -0.0° C fast wolkenlos
Mo, 25.03. 5:00 0.1° C wolkenlos
Ortszeit Relative Feuchte Sichtweite
Mo, 25.03. 7:00 82% 50 km
Mo, 25.03. 1:00 62% 70 km
So, 24.03. 19:00 58% 35 km
So, 24.03. 13:00 58% 20 km
So, 24.03. 7:00 94% 3.6 km
So, 24.03. 1:00 83% 6 km
Sa, 23.03. 19:00 66% 10 km
Sa, 23.03. 13:00 47% 17 km
Ortszeit Relative Feuchte Sichtweite
Mo, 25.03. 8:00 74% 50 km
Mo, 25.03. 7:50 74% -
Mo, 25.03. 7:40 77% -
Mo, 25.03. 7:30 76% 50 km
Mo, 25.03. 7:20 76% -
Mo, 25.03. 7:10 76% -
Mo, 25.03. 7:00 82% 50 km
Mo, 25.03. 6:30 80% 45 km
Mo, 25.03. 6:00 81% 50 km
Mo, 25.03. 5:30 88% 40 km
Mo, 25.03. 5:00 88% 30 km
Ortszeit Niederschlagsmenge Niederschlagsart
Mo, 25.03. 7:00 0.0 l/m2 in 12 Std. -
Mo, 25.03. 1:00 0.0 l/m2 in 6 Std. -
So, 24.03. 19:00 0.0 l/m2 in 12 Std. -
So, 24.03. 13:00 0.0 l/m2 in 6 Std. -
So, 24.03. 7:00 0.0 l/m2 in 12 Std. -
So, 24.03. 1:00 0.0 l/m2 in 6 Std. -
Sa, 23.03. 19:00 0.0 l/m2 in 12 Std. -
Sa, 23.03. 13:00 0.0 l/m2 in 6 Std. -
Ortszeit Niederschlagsmenge Niederschlagsart
Mo, 25.03. 8:00 0.0 l/m2 in 1 Std. -
Mo, 25.03. 7:50 keine Meldung -
Mo, 25.03. 7:40 keine Meldung -
Mo, 25.03. 7:30 0.0 l/m2 in 1 Std. -
Mo, 25.03. 7:20 keine Meldung -
Mo, 25.03. 7:10 keine Meldung -
Mo, 25.03. 7:00 0.0 l/m2 in 1 Std. -
Mo, 25.03. 6:30 0.0 l/m2 in 1 Std. -
Mo, 25.03. 6:00 0.0 l/m2 in 1 Std. -
Mo, 25.03. 5:30 0.0 l/m2 in 1 Std. -
Mo, 25.03. 5:00 0.0 l/m2 in 1 Std. -
Ortszeit Stärke Spitze Richtung
km/h Bft. km/h Grad Sektor
Mo, 25.03. 7:00 14 3 22 230° SW
Mo, 25.03. 1:00 7 2 18 310° NW
So, 24.03. 19:00 7 2 29 310° NW
So, 24.03. 13:00 13 3 28 30° NO
So, 24.03. 7:00 11 2 22 20° N
So, 24.03. 1:00 17 3 37 20° N
Sa, 23.03. 19:00 18 3 47 20° N
Sa, 23.03. 13:00 6 1 15 340° N
Ortszeit Stärke Spitze Richtung
km/h Bft. km/h Grad Sektor
Mo, 25.03. 8:00 13 3 20 240° SW
Mo, 25.03. 7:50 13 3 - 240° SW
Mo, 25.03. 7:40 13 3 - 230° SW
Mo, 25.03. 7:30 14 3 22 240° SW
Mo, 25.03. 7:20 14 3 - 240° SW
Mo, 25.03. 7:10 15 3 - 230° SW
Mo, 25.03. 7:00 14 3 22 230° SW
Mo, 25.03. 6:30 14 3 22 230° SW
Mo, 25.03. 6:00 15 3 20 220° SW
Mo, 25.03. 5:30 13 3 20 220° SW
Mo, 25.03. 5:00 13 3 17 220° SW
Ortszeit Untergrenze Bedeckung Gattung
total tief tief mittel hoch
Mo, 25.03. 7:00 1500 m 8/8 7/8 - - -
Mo, 25.03. 1:00 - 0/8 0/8 - - -
So, 24.03. 19:00 - 0/8 0/8 - - -
So, 24.03. 13:00 810 m 6/8 6/8 - - -
So, 24.03. 7:00 270 m 8/8 8/8 - - -
So, 24.03. 1:00 - 0/8 0/8 - - -
Sa, 23.03. 19:00 10500 m 8/8 0/8 - - -
Sa, 23.03. 13:00 10500 m 8/8 0/8 - - -
Ortszeit Bedeckungsgrad in Achtel und Wolkenuntergrenze
Mo, 25.03. 8:00 1(900m) 8(1800m)
Mo, 25.03. 7:50 1(900m) 8(1800m)
Mo, 25.03. 7:40 8(1500m)
Mo, 25.03. 7:30 8(1500m) 8(6600m) 8(7200m)
Mo, 25.03. 7:20 8(1500m) 8(6600m) 8(7200m)
Mo, 25.03. 7:10 7(1500m) 8(6600m) 8(7200m)
Mo, 25.03. 7:00 7(1500m) 8(6600m) 8(7200m)
Mo, 25.03. 6:30 3(1800m) 8(7800m)
Mo, 25.03. 6:00 2(1110m) 4(1500m) 6(8100m)
Mo, 25.03. 5:30 1(1500m)
Mo, 25.03. 5:00 keine Wolken
Ortszeit Luftdruck NN (hPa) Tendenz (hPa in 3 Std.)
Mo, 25.03. 7:00 1024 - 0,8
Mo, 25.03. 1:00 1026 - 0,3
So, 24.03. 19:00 1025 - 0,1
So, 24.03. 13:00 1026 - 0,7
So, 24.03. 7:00 1028 - 0,1
So, 24.03. 1:00 1029 - 1,1
Sa, 23.03. 19:00 1029 + 1,4
Sa, 23.03. 13:00 1029 - 0,5
Ortszeit Luftdruck NN (hPa) Tendenz (hPa in 3 Std.)
Mo, 25.03. 8:00 1024 - 0,1
Mo, 25.03. 7:50 1024 keine Meldung
Mo, 25.03. 7:40 1024 keine Meldung
Mo, 25.03. 7:30 1024 - 0,5
Mo, 25.03. 7:20 1024 keine Meldung
Mo, 25.03. 7:10 1024 keine Meldung
Mo, 25.03. 7:00 1024 - 0,8
Mo, 25.03. 6:30 1024 - 1,1
Mo, 25.03. 6:00 1024 - 1,2
Mo, 25.03. 5:30 1024 - 1,2
Mo, 25.03. 5:00 1024 - 1,3
Ortszeit Schneehöhe (cm)
Mo, 25.03. 7:00 0
Mo, 25.03. 1:00 0
So, 24.03. 19:00 0
So, 24.03. 13:00 0
So, 24.03. 7:00 0
So, 24.03. 1:00 0
Sa, 23.03. 19:00 0
Sa, 23.03. 13:00 0
Ortszeit Schneehöhe (cm)
Mo, 25.03. 8:00 0
Mo, 25.03. 7:50 0
Mo, 25.03. 7:40 0
Mo, 25.03. 7:30 0
Mo, 25.03. 7:20 0
Mo, 25.03. 7:10 0
Mo, 25.03. 7:00 0
Mo, 25.03. 6:30 0
Mo, 25.03. 6:00 0
Mo, 25.03. 5:30 0
Mo, 25.03. 5:00 0
Link zu dieser Seite / Seite empfehlen

Das Wetter in ...